HDAM/JIB METAR and TAF weather

Enter ICAO airport designator
Station Type Date Time Source
HDAM METAR 2018/10/22 10:00 UTC NOAA

HDAM 221000Z 10015KT 9999 SCT023 35/23 Q1013


Station Type Date Time Source
HDAM Decoded METAR 2018/10/22 10:00 UTC NOAA

Djibouti \ Ambouli, Djibouti (HDAM) 11-33N 043-10E
Oct 22, 2018 - 06:00 AM EDT / 2018.10.22 1000 UTC
Wind: from the E (100 degrees) at 17 MPH (15 KT):0
Visibility: greater than 7 mile(s):0
Sky conditions: partly cloudy
Temperature: 95 F (35 C)
Heat index: 104.5 F (40.3 C):1
Dew Point: 73 F (23 C)
Relative Humidity: 49%
Pressure (altimeter): 29.91 in. Hg (1013 hPa)
ob: HDAM 221000Z 10015KT 9999 SCT023 35/23 Q1013
cycle: 10

Station Type Date Time Source
HDAM TAF 2018/10/22 13:30 UTC NOAA

TAF TAF HDAM 221000Z 2213/2312 10010KT 9999 SCT023
BECMG 2215/2218 VRB03KT SCT020 SCT030
BECMG 2300/2306 00000KT SCT020
BECMG 2306/2312 08010KT SCT023


Example: see airport list